Terminal Aerodrome Forecast
Issued by NWS

Home | Current Version | Previous Version | Text Only | Print | Product List | Glossary On
Versions: 1 2 3 4 5 6 7 8 9 10 11 12 13
000
FTUS45 KABQ 020539
TAFFMN
TAF
KFMN 020539Z 0206/0306 09007KT P6SM VCSH SCT050 BKN090
     FM022000 22010KT P6SM VCSH SCT060 BKN100
     FM022300 VRB15G25KT P6SM VCTS BKN060CB
     FM030200 11008KT P6SM VCSH SCT060 BKN100=

USA.gov is the U.S. government's official web portal to all federal, state and local government web resources and services.